createdAt,value
2023-02-14T00:01:20.667Z,32.22
2023-02-14T00:04:06.503Z,37.90
2023-02-14T00:06:52.345Z,34.08
2023-02-14T00:09:38.129Z,35.78
2023-02-14T00:12:23.522Z,34.72
2023-02-14T00:15:22.326Z,35.72
2023-02-14T00:18:08.090Z,36.05
2023-02-14T00:20:53.477Z,36.33
2023-02-14T00:23:39.190Z,35.97
2023-02-14T00:26:24.866Z,31.75
2023-02-14T00:29:13.074Z,37.78
2023-02-14T00:31:59.275Z,35.85
2023-02-14T00:34:44.780Z,36.10
2023-02-14T00:37:30.459Z,35.83
2023-02-14T00:40:16.136Z,38.13
2023-02-14T00:43:01.701Z,38.90
2023-02-14T00:45:47.535Z,38.70
2023-02-14T00:48:33.416Z,35.47
2023-02-14T00:51:18.978Z,37.20
2023-02-14T00:54:04.863Z,35.88
2023-02-14T00:56:50.184Z,38.28
2023-02-14T00:59:35.930Z,39.83
2023-02-14T01:02:21.956Z,37.45
2023-02-14T01:05:07.796Z,37.35
2023-02-14T01:07:53.488Z,41.13
2023-02-14T01:10:40.148Z,38.03
2023-02-14T01:13:25.506Z,39.08
2023-02-14T01:16:14.150Z,38.95
2023-02-14T01:19:01.258Z,38.35
2023-02-14T01:21:46.725Z,38.72
2023-02-14T01:24:32.289Z,38.00
2023-02-14T01:27:17.747Z,37.65
2023-02-14T01:30:03.429Z,35.67
2023-02-14T01:32:49.415Z,37.55
2023-02-14T01:35:38.789Z,38.15
2023-02-14T01:38:24.313Z,37.22
2023-02-14T01:41:10.376Z,36.17
2023-02-14T01:44:07.999Z,37.58
2023-02-14T01:46:53.443Z,38.38
2023-02-14T01:49:45.833Z,38.42
2023-02-14T01:52:41.436Z,35.47
2023-02-14T01:55:32.381Z,36.88
2023-02-14T01:58:25.170Z,36.58
2023-02-14T02:01:15.793Z,38.03
2023-02-14T02:04:25.440Z,36.17
2023-02-14T02:07:17.676Z,36.33
2023-02-14T02:10:05.757Z,36.80
2023-02-14T02:12:53.657Z,38.45
2023-02-14T02:16:11.871Z,38.13
2023-02-14T02:19:38.056Z,38.47
2023-02-14T02:22:35.431Z,38.15
2023-02-14T02:25:26.884Z,37.60
2023-02-14T02:28:48.522Z,35.90
2023-02-14T02:31:58.850Z,37.20
2023-02-14T02:35:18.143Z,38.38
2023-02-14T02:38:12.405Z,36.22
2023-02-14T02:41:15.885Z,36.33
2023-02-14T02:44:06.964Z,35.42
2023-02-14T02:47:22.755Z,37.35
2023-02-14T02:50:32.914Z,37.70
2023-02-14T02:53:36.588Z,39.25
2023-02-14T02:56:56.574Z,36.65
2023-02-14T02:59:45.302Z,38.67
2023-02-14T03:02:54.316Z,37.47
2023-02-14T03:05:40.923Z,39.60
2023-02-14T03:08:26.451Z,39.90
2023-02-14T03:11:13.837Z,37.88
2023-02-14T03:14:18.753Z,39.53
2023-02-14T03:17:54.848Z,39.03
2023-02-14T03:21:17.665Z,40.40
2023-02-14T03:24:35.146Z,38.60
2023-02-14T03:27:30.847Z,37.58
2023-02-14T03:30:36.677Z,38.67
2023-02-14T03:33:30.575Z,39.45
2023-02-14T03:36:25.732Z,38.67
2023-02-14T03:39:14.713Z,40.00
2023-02-14T03:42:07.462Z,38.88
2023-02-14T03:44:55.133Z,39.80
2023-02-14T03:47:43.465Z,42.55
2023-02-14T03:50:31.376Z,37.85
2023-02-14T03:53:25.204Z,40.00
2023-02-14T03:57:16.116Z,41.30
2023-02-14T04:00:01.574Z,38.75
2023-02-14T04:02:59.086Z,40.30
2023-02-14T04:05:46.796Z,41.47
2023-02-14T04:08:32.653Z,41.90
2023-02-14T04:11:18.498Z,39.85
2023-02-14T04:14:04.989Z,40.78
2023-02-14T04:17:08.694Z,41.10
2023-02-14T04:19:54.775Z,40.95
2023-02-14T04:22:40.036Z,43.75
2023-02-14T04:25:25.799Z,43.25
2023-02-14T04:28:11.370Z,41.78
2023-02-14T04:30:56.726Z,42.70
2023-02-14T04:33:42.323Z,42.58
2023-02-14T04:36:28.127Z,41.95
2023-02-14T04:39:13.491Z,40.78
2023-02-14T04:41:58.994Z,41.58
2023-02-14T04:44:44.491Z,40.80
2023-02-14T04:47:30.007Z,42.53
2023-02-14T04:50:15.821Z,40.97
2023-02-14T04:53:01.195Z,40.97
2023-02-14T04:55:49.539Z,37.75
2023-02-14T04:58:35.234Z,38.97
2023-02-14T05:01:21.324Z,41.50
2023-02-14T05:04:07.697Z,40.03
2023-02-14T05:06:53.026Z,41.47
2023-02-14T05:09:38.761Z,40.47
2023-02-14T05:12:24.070Z,39.65
2023-02-14T05:15:10.362Z,38.80
2023-02-14T05:17:56.156Z,36.60
2023-02-14T05:20:41.709Z,41.25
2023-02-14T05:23:26.923Z,41.58
2023-02-14T05:26:12.397Z,40.80
2023-02-14T05:28:58.120Z,42.00
2023-02-14T05:31:43.317Z,44.88
2023-02-14T05:34:28.824Z,45.17
2023-02-14T05:37:14.168Z,46.35
2023-02-14T05:39:59.650Z,46.50
2023-02-14T05:42:45.857Z,45.70
2023-02-14T05:45:31.627Z,45.08
2023-02-14T05:48:18.181Z,46.33
2023-02-14T05:51:05.571Z,44.35
2023-02-14T05:53:51.402Z,46.60
2023-02-14T05:56:37.481Z,45.03
2023-02-14T05:59:23.111Z,43.13
2023-02-14T06:02:09.056Z,43.15
2023-02-14T06:04:55.149Z,44.20
2023-02-14T06:07:43.196Z,41.95
2023-02-14T06:10:28.822Z,42.55
2023-02-14T06:13:14.381Z,43.70
2023-02-14T06:15:59.961Z,43.83
2023-02-14T06:18:45.816Z,42.60
2023-02-14T06:21:31.788Z,44.00
2023-02-14T06:24:17.197Z,43.92
2023-02-14T06:27:03.202Z,45.53
2023-02-14T06:29:49.686Z,43.10
2023-02-14T06:32:35.491Z,43.55
2023-02-14T06:35:21.461Z,43.85
2023-02-14T06:38:07.145Z,45.30
2023-02-14T06:40:52.970Z,44.30
2023-02-14T06:43:39.328Z,45.13
2023-02-14T06:46:24.868Z,46.20
2023-02-14T06:49:10.857Z,43.55
2023-02-14T06:51:56.497Z,48.47
2023-02-14T06:54:42.351Z,47.72
2023-02-14T06:57:28.323Z,49.78
2023-02-14T07:00:14.981Z,49.70
2023-02-14T07:03:00.778Z,49.00
2023-02-14T07:05:46.875Z,45.88
2023-02-14T07:08:32.587Z,49.58
2023-02-14T07:11:18.762Z,49.92
2023-02-14T07:14:07.720Z,47.83
2023-02-14T07:16:53.280Z,52.90
2023-02-14T07:19:38.721Z,47.97
2023-02-14T07:22:24.484Z,49.25
2023-02-14T07:25:10.223Z,51.08
2023-02-14T07:27:56.775Z,49.80
2023-02-14T07:30:42.658Z,43.95
2023-02-14T07:33:36.845Z,47.75
2023-02-14T07:36:22.262Z,47.88
2023-02-14T07:39:08.236Z,50.15
2023-02-14T07:41:53.786Z,45.78
2023-02-14T07:44:39.954Z,48.97
2023-02-14T07:47:25.393Z,48.25
2023-02-14T07:50:11.045Z,46.35
2023-02-14T07:52:56.955Z,45.95
2023-02-14T07:55:42.570Z,46.50
2023-02-14T07:58:28.993Z,45.63
2023-02-14T08:01:16.169Z,43.63
2023-02-14T08:04:11.744Z,43.45
2023-02-14T08:06:57.784Z,43.53
2023-02-14T08:09:43.522Z,43.03
2023-02-14T08:12:47.724Z,43.65
2023-02-14T08:15:53.748Z,45.35
2023-02-14T08:18:46.684Z,44.55
2023-02-14T08:21:35.868Z,46.65
2023-02-14T08:24:22.530Z,46.22
2023-02-14T08:27:08.248Z,46.70
2023-02-14T08:29:54.440Z,45.70
2023-02-14T08:32:41.501Z,45.97
2023-02-14T08:35:28.097Z,47.67
2023-02-14T08:38:21.375Z,45.95
2023-02-14T08:41:09.053Z,48.13
2023-02-14T08:44:09.657Z,46.67
2023-02-14T08:46:55.452Z,51.10
2023-02-14T08:49:41.099Z,48.90
2023-02-14T08:52:26.446Z,49.35
2023-02-14T08:55:13.285Z,43.92
2023-02-14T08:58:00.615Z,41.67
2023-02-14T09:00:46.180Z,36.25
2023-02-14T09:03:32.284Z,34.63
2023-02-14T09:06:18.564Z,34.83
2023-02-14T09:09:04.283Z,33.95
2023-02-14T09:11:50.312Z,31.33
2023-02-14T09:14:40.337Z,29.92
2023-02-14T09:17:26.037Z,32.85
2023-02-14T09:20:13.583Z,30.85
2023-02-14T09:22:59.285Z,31.52
2023-02-14T09:25:44.844Z,30.95
2023-02-14T09:28:31.110Z,31.38
2023-02-14T09:31:18.908Z,29.83
2023-02-14T09:34:23.164Z,30.15
2023-02-14T09:37:11.883Z,31.35
2023-02-14T09:39:57.583Z,29.20
2023-02-14T09:42:46.375Z,30.23
2023-02-14T09:45:33.395Z,29.95
2023-02-14T09:48:20.027Z,28.73
2023-02-14T09:51:16.602Z,29.38
2023-02-14T09:54:10.632Z,28.20
2023-02-14T09:57:04.056Z,29.98
2023-02-14T10:03:03.112Z,28.05
2023-02-14T10:06:25.126Z,29.88
2023-02-14T10:09:26.522Z,28.17
2023-02-14T10:12:29.890Z,28.02
2023-02-14T10:15:20.393Z,28.50
2023-02-14T10:18:14.481Z,31.65
2023-02-14T10:21:02.839Z,31.17
2023-02-14T10:23:58.326Z,31.95
2023-02-14T10:26:46.284Z,30.25
2023-02-14T10:29:32.091Z,28.05
2023-02-14T10:32:35.392Z,27.77
2023-02-14T10:35:38.967Z,24.33
2023-02-14T10:38:33.100Z,24.33
2023-02-14T10:41:27.624Z,26.42
2023-02-14T10:44:25.518Z,23.42
2023-02-14T10:47:38.829Z,22.65
2023-02-14T10:50:35.918Z,19.08
2023-02-14T10:53:51.325Z,18.15
2023-02-14T10:57:14.712Z,17.48
2023-02-14T11:00:06.858Z,17.27
2023-02-14T11:02:57.662Z,18.70
2023-02-14T11:05:47.563Z,15.20
2023-02-14T11:08:41.520Z,16.58
2023-02-14T11:11:46.806Z,16.63
2023-02-14T11:14:38.125Z,17.08
2023-02-14T11:17:31.723Z,16.55
2023-02-14T11:20:30.340Z,13.75
2023-02-14T11:23:24.887Z,12.32
2023-02-14T11:26:32.979Z,13.50
2023-02-14T11:29:45.701Z,14.95
2023-02-14T11:32:34.581Z,14.95
2023-02-14T11:35:27.153Z,14.88
2023-02-14T11:38:35.774Z,14.30
2023-02-14T11:41:21.423Z,13.88
2023-02-14T11:44:22.310Z,13.40
2023-02-14T11:47:28.181Z,13.70
2023-02-14T11:50:25.913Z,12.75
2023-02-14T11:53:19.725Z,11.73
2023-02-14T11:56:05.932Z,12.38
2023-02-14T11:59:00.970Z,12.15
2023-02-14T12:01:46.951Z,11.45
2023-02-14T12:04:45.754Z,10.70
2023-02-14T12:07:38.137Z,9.65
2023-02-14T12:10:28.905Z,9.30
2023-02-14T12:13:14.428Z,8.15
2023-02-14T12:16:01.162Z,7.72
2023-02-14T12:19:06.091Z,8.85
2023-02-14T12:22:02.828Z,8.23
2023-02-14T12:25:03.463Z,8.02
2023-02-14T12:27:56.993Z,7.78
2023-02-14T12:30:42.978Z,8.32
2023-02-14T12:33:28.785Z,8.30
2023-02-14T12:36:49.572Z,7.30
2023-02-14T12:39:53.100Z,7.80
2023-02-14T12:42:57.758Z,7.93
2023-02-14T12:45:48.801Z,9.20
2023-02-14T12:48:47.281Z,7.78
2023-02-14T12:52:07.213Z,7.85
2023-02-14T12:55:23.395Z,8.20
2023-02-14T12:58:24.307Z,5.97
2023-02-14T13:01:39.023Z,5.03
2023-02-14T13:04:27.973Z,5.10
2023-02-14T13:07:23.796Z,5.18
2023-02-14T13:10:23.113Z,4.60
2023-02-14T13:13:33.391Z,5.25
2023-02-14T13:17:00.640Z,4.40
2023-02-14T13:19:57.314Z,4.55
2023-02-14T13:22:43.662Z,4.30
2023-02-14T13:25:33.752Z,4.45
2023-02-14T13:28:20.945Z,5.60
2023-02-14T13:31:07.214Z,6.07
2023-02-14T13:34:08.454Z,5.78
2023-02-14T13:36:59.067Z,4.53
2023-02-14T13:39:57.104Z,4.72
2023-02-14T13:42:51.750Z,4.82
2023-02-14T13:46:18.120Z,4.72
2023-02-14T13:49:16.503Z,5.60
2023-02-14T13:52:07.360Z,5.38
2023-02-14T13:55:04.773Z,5.55
2023-02-14T13:58:19.336Z,5.80
2023-02-14T14:01:36.824Z,7.20
2023-02-14T14:04:28.607Z,6.75
2023-02-14T14:07:19.019Z,7.40
2023-02-14T14:10:05.994Z,7.65
2023-02-14T14:12:53.078Z,7.38
2023-02-14T14:15:58.960Z,6.97
2023-02-14T14:18:45.068Z,5.63
2023-02-14T14:21:37.691Z,5.72
2023-02-14T14:24:31.761Z,6.05
2023-02-14T14:27:23.217Z,6.38
2023-02-14T14:30:21.288Z,5.35
2023-02-14T14:33:29.491Z,6.72
2023-02-14T14:36:23.280Z,6.50
2023-02-14T14:39:10.525Z,8.02
2023-02-14T14:41:57.208Z,9.38
2023-02-14T14:44:52.951Z,9.60
2023-02-14T14:47:43.394Z,9.82
2023-02-14T14:50:32.406Z,9.95
2023-02-14T14:53:28.028Z,9.85
2023-02-14T14:56:25.491Z,9.35
2023-02-14T14:59:27.789Z,8.18
2023-02-14T15:02:26.535Z,8.32
2023-02-14T15:05:27.078Z,7.95
2023-02-14T15:08:23.316Z,7.47
2023-02-14T15:11:46.938Z,8.95
2023-02-14T15:14:42.114Z,7.72
2023-02-14T15:17:31.818Z,7.43
2023-02-14T15:20:21.538Z,7.90
2023-02-14T15:23:15.968Z,8.20
2023-02-14T15:26:01.775Z,9.07
2023-02-14T15:28:58.876Z,8.30
2023-02-14T15:31:45.392Z,9.07
2023-02-14T15:34:36.119Z,8.75
2023-02-14T15:37:23.002Z,8.95
2023-02-14T15:40:16.221Z,8.25
2023-02-14T15:43:30.931Z,8.05
2023-02-14T15:46:32.463Z,8.55
2023-02-14T15:49:21.458Z,7.70
2023-02-14T15:52:07.694Z,7.60
2023-02-14T15:54:53.211Z,8.27
2023-02-14T15:57:39.319Z,8.48
2023-02-14T16:00:25.655Z,8.10
2023-02-14T16:03:19.422Z,8.63
2023-02-14T16:06:05.507Z,10.13
2023-02-14T16:08:56.371Z,10.02
2023-02-14T16:11:41.694Z,10.35
2023-02-14T16:14:35.287Z,11.82
2023-02-14T16:17:35.347Z,11.70
2023-02-14T16:20:40.939Z,11.38
2023-02-14T16:23:29.698Z,10.90
2023-02-14T16:26:15.397Z,11.73
2023-02-14T16:29:05.700Z,11.95
2023-02-14T16:32:14.472Z,12.18
2023-02-14T16:35:01.321Z,11.32
2023-02-14T16:37:48.603Z,11.50
2023-02-14T16:40:35.131Z,12.52
2023-02-14T16:43:21.421Z,13.43
2023-02-14T16:46:09.508Z,12.10
2023-02-14T16:48:55.412Z,12.00
2023-02-14T16:51:44.352Z,12.82
2023-02-14T16:54:30.247Z,13.82
2023-02-14T16:57:41.114Z,13.13
2023-02-14T17:00:28.367Z,12.73
2023-02-14T17:03:14.325Z,14.00
2023-02-14T17:06:01.354Z,13.32
2023-02-14T17:08:49.142Z,15.48
2023-02-14T17:11:38.342Z,13.15
2023-02-14T17:14:27.869Z,15.45
2023-02-14T17:17:13.946Z,13.18
2023-02-14T17:19:59.510Z,13.85
2023-02-14T17:22:45.259Z,14.68
2023-02-14T17:25:31.407Z,15.93
2023-02-14T17:28:17.397Z,13.43
2023-02-14T17:31:04.399Z,12.98
2023-02-14T17:33:50.139Z,13.77
2023-02-14T17:36:35.691Z,13.70
2023-02-14T17:39:21.293Z,14.25
2023-02-14T17:42:07.001Z,15.98
2023-02-14T17:44:52.601Z,15.25
2023-02-14T17:47:39.572Z,17.20
2023-02-14T17:50:25.048Z,17.17
2023-02-14T17:53:12.565Z,19.48
2023-02-14T17:55:58.202Z,17.85
2023-02-14T17:58:44.459Z,19.80
2023-02-14T18:01:36.249Z,17.95
2023-02-14T18:04:31.169Z,17.05
2023-02-14T18:07:17.134Z,18.63
2023-02-14T18:10:02.367Z,16.88
2023-02-14T18:12:48.293Z,18.73
2023-02-14T18:15:33.865Z,17.83
2023-02-14T18:18:19.720Z,19.05
2023-02-14T18:21:07.786Z,18.92
2023-02-14T18:23:53.651Z,18.35
2023-02-14T18:26:41.122Z,17.70
2023-02-14T18:29:26.847Z,17.17
2023-02-14T18:32:12.372Z,16.17
2023-02-14T18:34:57.927Z,17.75
2023-02-14T18:37:43.614Z,20.42
2023-02-14T18:40:29.271Z,21.05
2023-02-14T18:43:14.871Z,21.77
2023-02-14T18:46:05.680Z,23.63
2023-02-14T18:48:52.007Z,23.80
2023-02-14T18:51:39.483Z,20.80
2023-02-14T18:54:25.357Z,23.40
2023-02-14T18:57:10.789Z,21.08
2023-02-14T18:59:56.565Z,22.35
2023-02-14T19:02:42.412Z,22.70
2023-02-14T19:05:28.185Z,22.55
2023-02-14T19:08:13.347Z,22.75
2023-02-14T19:10:59.620Z,25.05
2023-02-14T19:13:51.026Z,22.27
2023-02-14T19:16:42.127Z,25.60
2023-02-14T19:19:27.879Z,24.98
2023-02-14T19:22:13.607Z,25.42
2023-02-14T19:24:59.555Z,24.80
2023-02-14T19:27:45.202Z,24.73
2023-02-14T19:30:30.728Z,25.42
2023-02-14T19:33:16.578Z,26.27
2023-02-14T19:36:05.525Z,26.70
2023-02-14T19:38:53.465Z,25.92
2023-02-14T19:41:40.050Z,27.10
2023-02-14T19:44:26.004Z,26.95
2023-02-14T19:47:28.749Z,27.33
2023-02-14T19:50:21.946Z,27.35
2023-02-14T19:53:07.476Z,29.70
2023-02-14T19:55:53.157Z,29.05
2023-02-14T19:58:38.945Z,29.27
2023-02-14T20:01:29.021Z,29.60
2023-02-14T20:04:18.135Z,29.35
2023-02-14T20:07:03.997Z,28.90
2023-02-14T20:09:50.297Z,29.70
2023-02-14T20:12:36.488Z,28.10
2023-02-14T20:15:21.719Z,29.40
2023-02-14T20:18:07.736Z,29.15
2023-02-14T20:21:02.737Z,29.35
2023-02-14T20:23:48.394Z,28.17
2023-02-14T20:26:36.401Z,26.08
2023-02-14T20:29:23.347Z,26.52
2023-02-14T20:32:11.352Z,25.45
2023-02-14T20:34:57.959Z,28.70
2023-02-14T20:37:44.223Z,33.08
2023-02-14T20:40:29.713Z,34.22
2023-02-14T20:43:15.220Z,35.28
2023-02-14T20:46:02.539Z,33.72
2023-02-14T20:48:50.955Z,29.42
2023-02-14T20:51:36.289Z,29.02
2023-02-14T20:54:24.076Z,27.85
2023-02-14T20:57:09.727Z,28.88
2023-02-14T20:59:55.180Z,29.00
2023-02-14T21:02:40.920Z,28.10
2023-02-14T21:05:26.469Z,28.27
2023-02-14T21:08:12.556Z,30.73
2023-02-14T21:10:58.538Z,32.95
2023-02-14T21:13:44.597Z,30.58
2023-02-14T21:16:30.652Z,27.67
2023-02-14T21:19:16.224Z,27.80
2023-02-14T21:22:01.738Z,30.35
2023-02-14T21:24:47.527Z,30.35
2023-02-14T21:27:33.153Z,29.92
2023-02-14T21:30:18.801Z,31.05
2023-02-14T21:33:04.480Z,31.05
2023-02-14T21:35:50.204Z,30.48
2023-02-14T21:38:36.892Z,30.60
2023-02-14T21:41:24.547Z,30.17
2023-02-14T21:44:30.248Z,31.63
2023-02-14T21:47:15.986Z,30.55
2023-02-14T21:50:22.214Z,28.92
2023-02-14T21:53:08.048Z,31.00
2023-02-14T21:55:58.017Z,32.60
2023-02-14T21:58:49.510Z,32.25
2023-02-14T22:01:43.690Z,32.78
2023-02-14T22:04:29.811Z,35.67
2023-02-14T22:07:23.017Z,36.67
2023-02-14T22:10:14.770Z,33.80
2023-02-14T22:13:00.547Z,35.45
2023-02-14T22:15:47.104Z,33.88
2023-02-14T22:18:33.231Z,31.85
2023-02-14T22:21:24.867Z,32.60
2023-02-14T22:24:11.305Z,33.45
2023-02-14T22:26:57.841Z,34.45
2023-02-14T22:29:47.370Z,33.55
2023-02-14T22:32:33.496Z,32.63
2023-02-14T22:35:19.358Z,31.70
2023-02-14T22:38:05.154Z,31.77
2023-02-14T22:40:50.776Z,32.17
2023-02-14T22:43:37.694Z,32.83
2023-02-14T22:46:28.965Z,31.10
2023-02-14T22:49:14.628Z,30.33
2023-02-14T22:51:59.953Z,31.75
2023-02-14T22:54:45.642Z,30.75
2023-02-14T22:57:35.830Z,31.05
2023-02-14T23:00:22.117Z,31.52
2023-02-14T23:03:07.801Z,32.90
2023-02-14T23:06:03.032Z,31.92
2023-02-14T23:08:51.003Z,30.30
2023-02-14T23:11:41.650Z,31.40
2023-02-14T23:14:55.637Z,34.13
2023-02-14T23:17:59.746Z,32.50
2023-02-14T23:21:03.966Z,33.45
2023-02-14T23:23:49.284Z,30.00
2023-02-14T23:26:37.301Z,30.33
2023-02-14T23:29:23.089Z,29.10
2023-02-14T23:32:09.038Z,29.98
2023-02-14T23:34:54.968Z,30.42
2023-02-14T23:37:41.743Z,27.10
2023-02-14T23:40:27.585Z,27.05
2023-02-14T23:43:12.972Z,27.35
2023-02-14T23:46:00.403Z,26.05
2023-02-14T23:48:46.653Z,24.92
2023-02-14T23:51:34.312Z,25.42
2023-02-14T23:54:21.517Z,26.58
2023-02-14T23:57:08.013Z,26.05
2023-02-14T23:59:53.637Z,28.42
